Royal Lakes, Illinois
Current Conditions -  °F | °C
As of 2:55 AM on Monday 20 Oct 2014 (Local Time) from KALN Reporting Station
Overcast Overcast  
Wind Chill: 56°   Ceiling: 11000
Heat Index: 56°   Visibility: 10mi
Dew Point: 47°   Wind: 8mph
Humidity: 71%   Direction: 210°SSW
Pressure: 29.99"   Gusts: NA
Location:  39.138°N, 90.0562°W
Report Text: KALN 200755Z AUTO 21007KT 10SM OVC110 13/08 A2999 RMK AO2 T01330082
Loading
Personal Weather Stations






























Interactive Weather Map New forecast layout! Learn more

10-Day Weather Forecast

Advertisements
Track Severe Weather on mobile